Portada
METAR-TAF:

METAR-TAF

Aeroports :

17 Rosado

Mossoró, Rio Grande do Norte, Brasil

latitud: 05-12S, longitud: 037-22W, altitud: 23 m

Observació

L'informe es va fer fa 5 hores i 50 minuts, a les 03:00 UTC
Vent 2 kt del Sud
Temperatura 25°C
Humitat 94%
Pressió 1015 hPa
Visibilitat 10 km o més
Cel ennuvolat a una alçada de 1500 ft
Cel ennuvolat a una alçada de 9000 ft
pluja

METAR: SBMS 170300Z 18002KT 9999 -RA BKN015 BKN090 25/24 Q1015

Hora: 05:50 (08:50 UTC)


TAF: manca

Observacions i pronòstics meteorològics de més de 4000 aeroports (METAR i TAF).

Les estacions disponibles són els punts grocs i vermells al mapa.

Posi el ratolí al punt desitjat per veure el nom de l'estació.

Feu clic per veure les observacions i els pronòstics meteorològics.

Per canviar el mapa: feu clic els botons verds amb una creu de color negre per apropar; al botó verd amb un guió per allunyar la imatge; o en les fletxes verdes per a mapes adjacents.


METAR-TAF: